sensor_id;sensor_type;location;lat;lon;timestamp;pressure;altitude;pressure_sealevel;temperature;humidity
61296;BME280;47168;48.104;20.730;2022-08-21T00:01:56;99246.88;;;19.55;81.66
61296;BME280;47168;48.104;20.730;2022-08-21T00:04:22;99232.00;;;19.52;82.29
61296;BME280;47168;48.104;20.730;2022-08-21T00:06:48;99231.66;;;19.55;79.85
61296;BME280;47168;48.104;20.730;2022-08-21T00:09:13;99233.03;;;19.51;81.18
61296;BME280;47168;48.104;20.730;2022-08-21T00:11:39;99232.38;;;19.49;81.32
61296;BME280;47168;48.104;20.730;2022-08-21T00:14:07;99238.69;;;19.56;80.16
61296;BME280;47168;48.104;20.730;2022-08-21T00:16:34;99238.28;;;19.59;81.81
61296;BME280;47168;48.104;20.730;2022-08-21T00:18:59;99234.56;;;19.46;81.33
61296;BME280;47168;48.104;20.730;2022-08-21T00:21:25;99231.09;;;19.45;81.97
61296;BME280;47168;48.104;20.730;2022-08-21T00:23:51;99237.78;;;19.41;82.30
61296;BME280;47168;48.104;20.730;2022-08-21T00:26:16;99239.47;;;19.42;83.03
61296;BME280;47168;48.104;20.730;2022-08-21T00:28:42;99234.94;;;19.42;82.48
61296;BME280;47168;48.104;20.730;2022-08-21T00:31:08;99233.09;;;19.28;82.28
61296;BME280;47168;48.104;20.730;2022-08-21T00:33:33;99225.78;;;19.22;81.92
61296;BME280;47168;48.104;20.730;2022-08-21T00:36:00;99233.69;;;19.15;84.22
61296;BME280;47168;48.104;20.730;2022-08-21T00:38:25;99231.38;;;19.12;85.09
61296;BME280;47168;48.104;20.730;2022-08-21T00:40:57;99227.50;;;19.15;84.44
61296;BME280;47168;48.104;20.730;2022-08-21T00:43:27;99228.03;;;19.10;84.37
61296;BME280;47168;48.104;20.730;2022-08-21T00:45:54;99224.97;;;18.98;85.07
61296;BME280;47168;48.104;20.730;2022-08-21T00:48:20;99219.16;;;18.95;84.24
61296;BME280;47168;48.104;20.730;2022-08-21T00:50:55;99224.03;;;18.91;84.37
61296;BME280;47168;48.104;20.730;2022-08-21T00:53:22;99219.69;;;18.90;85.78
61296;BME280;47168;48.104;20.730;2022-08-21T00:55:48;99228.34;;;18.92;85.26
61296;BME280;47168;48.104;20.730;2022-08-21T00:58:15;99228.00;;;18.95;84.37
61296;BME280;47168;48.104;20.730;2022-08-21T01:00:43;99222.28;;;18.98;84.40
61296;BME280;47168;48.104;20.730;2022-08-21T01:03:12;99223.63;;;18.94;83.66
61296;BME280;47168;48.104;20.730;2022-08-21T01:05:39;99212.66;;;18.89;86.32
61296;BME280;47168;48.104;20.730;2022-08-21T01:08:06;99208.28;;;18.96;85.89
61296;BME280;47168;48.104;20.730;2022-08-21T01:10:33;99207.88;;;18.99;85.45
61296;BME280;47168;48.104;20.730;2022-08-21T01:13:01;99207.88;;;18.99;85.50
61296;BME280;47168;48.104;20.730;2022-08-21T01:15:30;99207.34;;;18.81;85.80
61296;BME280;47168;48.104;20.730;2022-08-21T01:17:57;99201.75;;;18.67;86.98
61296;BME280;47168;48.104;20.730;2022-08-21T01:20:23;99205.44;;;18.66;87.07
61296;BME280;47168;48.104;20.730;2022-08-21T01:22:48;99211.97;;;18.64;86.97
61296;BME280;47168;48.104;20.730;2022-08-21T01:25:18;99199.97;;;18.60;86.02
61296;BME280;47168;48.104;20.730;2022-08-21T01:27:47;99210.66;;;18.60;87.01
61296;BME280;47168;48.104;20.730;2022-08-21T01:30:20;99204.03;;;18.47;88.00
61296;BME280;47168;48.104;20.730;2022-08-21T01:32:46;99201.53;;;18.46;86.26
61296;BME280;47168;48.104;20.730;2022-08-21T01:35:14;99207.78;;;18.38;86.59
61296;BME280;47168;48.104;20.730;2022-08-21T01:37:40;99201.06;;;18.42;85.13
61296;BME280;47168;48.104;20.730;2022-08-21T01:40:07;99198.94;;;18.38;86.20
61296;BME280;47168;48.104;20.730;2022-08-21T01:42:32;99195.91;;;18.41;87.13
61296;BME280;47168;48.104;20.730;2022-08-21T01:44:58;99203.09;;;18.40;88.25
61296;BME280;47168;48.104;20.730;2022-08-21T01:47:23;99196.59;;;18.43;86.34
61296;BME280;47168;48.104;20.730;2022-08-21T01:49:49;99202.75;;;18.43;86.54
61296;BME280;47168;48.104;20.730;2022-08-21T01:52:15;99199.47;;;18.33;87.83
61296;BME280;47168;48.104;20.730;2022-08-21T01:54:40;99197.97;;;18.30;88.95
61296;BME280;47168;48.104;20.730;2022-08-21T01:57:06;99206.56;;;18.18;89.48
61296;BME280;47168;48.104;20.730;2022-08-21T01:59:33;99203.56;;;18.12;88.62
61296;BME280;47168;48.104;20.730;2022-08-21T02:01:58;99194.38;;;18.15;87.63
61296;BME280;47168;48.104;20.730;2022-08-21T02:04:24;99199.91;;;18.13;87.70
61296;BME280;47168;48.104;20.730;2022-08-21T02:06:50;99198.56;;;18.18;86.81
61296;BME280;47168;48.104;20.730;2022-08-21T02:09:16;99201.22;;;18.18;88.01
61296;BME280;47168;48.104;20.730;2022-08-21T02:11:42;99204.38;;;18.21;90.00
61296;BME280;47168;48.104;20.730;2022-08-21T02:14:09;99205.38;;;18.20;89.48
61296;BME280;47168;48.104;20.730;2022-08-21T02:16:37;99209.38;;;18.24;88.10
61296;BME280;47168;48.104;20.730;2022-08-21T02:19:03;99198.00;;;18.22;89.05
61296;BME280;47168;48.104;20.730;2022-08-21T02:21:29;99200.69;;;18.22;89.63
61296;BME280;47168;48.104;20.730;2022-08-21T02:23:55;99196.88;;;18.17;90.15
61296;BME280;47168;48.104;20.730;2022-08-21T02:26:20;99201.03;;;18.19;90.31
61296;BME280;47168;48.104;20.730;2022-08-21T02:28:46;99194.00;;;18.26;90.78
61296;BME280;47168;48.104;20.730;2022-08-21T02:31:11;99198.19;;;18.21;90.96
61296;BME280;47168;48.104;20.730;2022-08-21T02:33:37;99196.53;;;18.20;89.72
61296;BME280;47168;48.104;20.730;2022-08-21T02:36:03;99198.00;;;18.22;91.20
61296;BME280;47168;48.104;20.730;2022-08-21T02:38:30;99192.19;;;18.19;90.78
61296;BME280;47168;48.104;20.730;2022-08-21T02:40:56;99194.56;;;18.13;91.47
61296;BME280;47168;48.104;20.730;2022-08-21T02:43:24;99191.41;;;18.10;92.28
61296;BME280;47168;48.104;20.730;2022-08-21T02:45:52;99191.69;;;18.23;92.75
61296;BME280;47168;48.104;20.730;2022-08-21T02:48:21;99192.97;;;18.27;91.87
61296;BME280;47168;48.104;20.730;2022-08-21T02:50:53;99191.03;;;18.21;91.06
61296;BME280;47168;48.104;20.730;2022-08-21T02:53:19;99195.50;;;18.21;91.79
61296;BME280;47168;48.104;20.730;2022-08-21T02:55:46;99193.69;;;18.21;89.78
61296;BME280;47168;48.104;20.730;2022-08-21T02:58:14;99197.50;;;18.27;91.28
61296;BME280;47168;48.104;20.730;2022-08-21T03:00:40;99197.19;;;18.22;90.25
61296;BME280;47168;48.104;20.730;2022-08-21T03:03:05;99195.50;;;18.21;91.83
61296;BME280;47168;48.104;20.730;2022-08-21T03:05:32;99197.69;;;18.17;92.34
61296;BME280;47168;48.104;20.730;2022-08-21T03:08:01;99201.91;;;18.11;93.02
61296;BME280;47168;48.104;20.730;2022-08-21T03:10:27;99192.09;;;18.04;93.49
61296;BME280;47168;48.104;20.730;2022-08-21T03:12:54;99192.09;;;18.04;92.90
61296;BME280;47168;48.104;20.730;2022-08-21T03:15:21;99203.47;;;17.98;94.01
61296;BME280;47168;48.104;20.730;2022-08-21T03:17:49;99196.16;;;17.91;93.59
61296;BME280;47168;48.104;20.730;2022-08-21T03:20:17;99203.81;;;17.86;92.70
61296;BME280;47168;48.104;20.730;2022-08-21T03:22:43;99203.81;;;17.94;92.86
61296;BME280;47168;48.104;20.730;2022-08-21T03:25:08;99193.28;;;18.01;92.07
61296;BME280;47168;48.104;20.730;2022-08-21T03:27:36;99207.94;;;18.05;93.51
61296;BME280;47168;48.104;20.730;2022-08-21T03:30:04;99200.97;;;18.04;91.02
61296;BME280;47168;48.104;20.730;2022-08-21T03:32:29;99207.63;;;18.00;92.99
61296;BME280;47168;48.104;20.730;2022-08-21T03:34:56;99201.50;;;17.91;94.04
61296;BME280;47168;48.104;20.730;2022-08-21T03:37:22;99215.28;;;18.03;93.62
61296;BME280;47168;48.104;20.730;2022-08-21T03:39:49;99216.13;;;18.04;90.92
61296;BME280;47168;48.104;20.730;2022-08-21T03:42:15;99224.13;;;18.04;92.02
61296;BME280;47168;48.104;20.730;2022-08-21T03:44:41;99220.97;;;18.00;92.90
61296;BME280;47168;48.104;20.730;2022-08-21T03:47:06;99223.66;;;18.00;93.26
61296;BME280;47168;48.104;20.730;2022-08-21T03:49:32;99219.66;;;17.96;93.55
61296;BME280;47168;48.104;20.730;2022-08-21T03:51:58;99223.84;;;17.90;91.39
61296;BME280;47168;48.104;20.730;2022-08-21T03:54:24;99226.00;;;17.95;91.56
61296;BME280;47168;48.104;20.730;2022-08-21T03:56:50;99231.66;;;18.00;93.67
61296;BME280;47168;48.104;20.730;2022-08-21T03:59:15;99224.84;;;17.98;94.01
61296;BME280;47168;48.104;20.730;2022-08-21T04:01:54;99230.53;;;17.94;94.72
61296;BME280;47168;48.104;20.730;2022-08-21T04:04:20;99228.31;;;17.98;94.54
61296;BME280;47168;48.104;20.730;2022-08-21T04:06:46;99221.16;;;17.99;94.35
61296;BME280;47168;48.104;20.730;2022-08-21T04:09:12;99220.63;;;18.03;94.89
61296;BME280;47168;48.104;20.730;2022-08-21T04:11:37;99226.28;;;18.08;94.46
61296;BME280;47168;48.104;20.730;2022-08-21T04:14:03;99225.81;;;18.05;94.05
61296;BME280;47168;48.104;20.730;2022-08-21T04:16:29;99219.63;;;18.04;93.81
61296;BME280;47168;48.104;20.730;2022-08-21T04:18:56;99230.81;;;18.08;92.80
61296;BME280;47168;48.104;20.730;2022-08-21T04:21:22;99223.94;;;18.13;93.07
61296;BME280;47168;48.104;20.730;2022-08-21T04:23:47;99229.88;;;18.24;92.98
61296;BME280;47168;48.104;20.730;2022-08-21T04:26:13;99234.53;;;18.30;90.95
61296;BME280;47168;48.104;20.730;2022-08-21T04:28:38;99235.50;;;18.37;93.26
61296;BME280;47168;48.104;20.730;2022-08-21T04:31:04;99246.13;;;18.45;93.88
61296;BME280;47168;48.104;20.730;2022-08-21T04:33:29;99235.75;;;18.50;92.91
61296;BME280;47168;48.104;20.730;2022-08-21T04:35:54;99255.25;;;18.59;92.62
61296;BME280;47168;48.104;20.730;2022-08-21T04:38:20;99255.38;;;18.66;92.47
61296;BME280;47168;48.104;20.730;2022-08-21T04:40:46;99258.56;;;18.69;92.08
61296;BME280;47168;48.104;20.730;2022-08-21T04:43:13;99269.53;;;18.75;91.43
61296;BME280;47168;48.104;20.730;2022-08-21T04:45:41;99261.22;;;18.69;91.95
61296;BME280;47168;48.104;20.730;2022-08-21T04:48:09;99263.88;;;18.69;91.94
61296;BME280;47168;48.104;20.730;2022-08-21T04:51:11;99266.88;;;18.75;93.14
61296;BME280;47168;48.104;20.730;2022-08-21T04:53:45;99268.00;;;18.80;91.99
61296;BME280;47168;48.104;20.730;2022-08-21T04:56:15;99266.69;;;18.84;95.36
61296;BME280;47168;48.104;20.730;2022-08-21T04:58:44;99267.44;;;18.93;96.07
61296;BME280;47168;48.104;20.730;2022-08-21T05:01:14;99269.38;;;18.99;97.40
61296;BME280;47168;48.104;20.730;2022-08-21T05:03:41;99270.53;;;19.05;95.52
61296;BME280;47168;48.104;20.730;2022-08-21T05:06:09;99278.84;;;19.10;93.89
61296;BME280;47168;48.104;20.730;2022-08-21T05:08:36;99287.34;;;19.14;92.59
61296;BME280;47168;48.104;20.730;2022-08-21T05:11:03;99279.63;;;19.19;90.54
61296;BME280;47168;48.104;20.730;2022-08-21T05:13:29;99289.59;;;19.25;92.32
61296;BME280;47168;48.104;20.730;2022-08-21T05:15:55;99277.53;;;19.29;91.02
61296;BME280;47168;48.104;20.730;2022-08-21T05:18:21;99287.69;;;19.34;92.88
61296;BME280;47168;48.104;20.730;2022-08-21T05:20:46;99281.16;;;19.36;92.03
61296;BME280;47168;48.104;20.730;2022-08-21T05:23:13;99285.94;;;19.41;92.68
61296;BME280;47168;48.104;20.730;2022-08-21T05:25:40;99290.13;;;19.43;91.05
61296;BME280;47168;48.104;20.730;2022-08-21T05:28:06;99293.03;;;19.57;91.37
61296;BME280;47168;48.104;20.730;2022-08-21T05:30:32;99291.81;;;19.59;90.78
61296;BME280;47168;48.104;20.730;2022-08-21T05:32:59;99298.66;;;19.62;91.67
61296;BME280;47168;48.104;20.730;2022-08-21T05:35:25;99296.91;;;19.69;90.24
61296;BME280;47168;48.104;20.730;2022-08-21T05:37:50;99299.75;;;19.68;90.96
61296;BME280;47168;48.104;20.730;2022-08-21T05:40:16;99313.78;;;19.78;92.89
61296;BME280;47168;48.104;20.730;2022-08-21T05:42:43;99308.03;;;19.81;90.47
61296;BME280;47168;48.104;20.730;2022-08-21T05:45:08;99313.88;;;19.85;87.12
61296;BME280;47168;48.104;20.730;2022-08-21T05:47:34;99319.69;;;19.88;88.69
61296;BME280;47168;48.104;20.730;2022-08-21T05:49:59;99318.31;;;19.92;87.40
61296;BME280;47168;48.104;20.730;2022-08-21T05:52:25;99318.75;;;19.96;87.23
61296;BME280;47168;48.104;20.730;2022-08-21T05:54:50;99316.38;;;20.01;86.37
61296;BME280;47168;48.104;20.730;2022-08-21T05:57:18;99311.28;;;20.06;87.67
61296;BME280;47168;48.104;20.730;2022-08-21T05:59:44;99301.53;;;20.13;85.89
61296;BME280;47168;48.104;20.730;2022-08-21T06:02:10;99298.75;;;20.22;88.20
61296;BME280;47168;48.104;20.730;2022-08-21T06:04:37;99305.66;;;20.31;86.35
61296;BME280;47168;48.104;20.730;2022-08-21T06:07:03;99309.28;;;20.38;84.85
61296;BME280;47168;48.104;20.730;2022-08-21T06:09:29;99314.50;;;20.46;84.55
61296;BME280;47168;48.104;20.730;2022-08-21T06:11:54;99315.25;;;20.55;83.96
61296;BME280;47168;48.104;20.730;2022-08-21T06:14:20;99300.09;;;20.62;83.46
61296;BME280;47168;48.104;20.730;2022-08-21T06:16:45;99303.06;;;20.67;82.64
61296;BME280;47168;48.104;20.730;2022-08-21T06:19:11;99298.16;;;20.71;83.07
61296;BME280;47168;48.104;20.730;2022-08-21T06:21:37;99297.59;;;20.76;82.78
61296;BME280;47168;48.104;20.730;2022-08-21T06:24:03;99283.63;;;20.80;82.94
61296;BME280;47168;48.104;20.730;2022-08-21T06:26:30;99281.47;;;20.90;83.22
61296;BME280;47168;48.104;20.730;2022-08-21T06:28:56;99283.84;;;21.00;82.18
61296;BME280;47168;48.104;20.730;2022-08-21T06:31:23;99280.19;;;21.08;81.54
61296;BME280;47168;48.104;20.730;2022-08-21T06:33:50;99279.22;;;21.16;82.63
61296;BME280;47168;48.104;20.730;2022-08-21T06:36:18;99284.47;;;21.24;80.79
61296;BME280;47168;48.104;20.730;2022-08-21T06:38:43;99270.66;;;21.27;80.39
61296;BME280;47168;48.104;20.730;2022-08-21T06:41:10;99264.50;;;21.33;81.60
61296;BME280;47168;48.104;20.730;2022-08-21T06:43:35;99269.34;;;21.44;81.36
61296;BME280;47168;48.104;20.730;2022-08-21T06:46:04;99258.13;;;21.56;81.37
61296;BME280;47168;48.104;20.730;2022-08-21T06:48:29;99265.00;;;21.65;80.43
61296;BME280;47168;48.104;20.730;2022-08-21T06:50:58;99260.31;;;21.74;78.43
61296;BME280;47168;48.104;20.730;2022-08-21T06:53:24;99268.00;;;21.77;77.96
61296;BME280;47168;48.104;20.730;2022-08-21T06:55:49;99262.66;;;21.83;79.20
61296;BME280;47168;48.104;20.730;2022-08-21T06:58:16;99260.03;;;21.90;78.11
61296;BME280;47168;48.104;20.730;2022-08-21T07:00:45;99247.44;;;21.97;77.45
61296;BME280;47168;48.104;20.730;2022-08-21T07:03:26;99233.91;;;22.12;78.28
61296;BME280;47168;48.104;20.730;2022-08-21T07:05:53;99238.44;;;22.18;74.47
61296;BME280;47168;48.104;20.730;2022-08-21T07:08:19;99232.28;;;22.25;75.07
61296;BME280;47168;48.104;20.730;2022-08-21T07:10:45;99232.16;;;22.39;73.48
61296;BME280;47168;48.104;20.730;2022-08-21T07:13:12;99227.81;;;22.38;73.93
61296;BME280;47168;48.104;20.730;2022-08-21T07:15:37;99244.78;;;22.39;73.98
61296;BME280;47168;48.104;20.730;2022-08-21T07:18:03;99247.91;;;22.49;74.48
61296;BME280;47168;48.104;20.730;2022-08-21T07:20:30;99252.47;;;22.49;73.63
61296;BME280;47168;48.104;20.730;2022-08-21T07:22:58;99254.53;;;22.53;74.56
61296;BME280;47168;48.104;20.730;2022-08-21T07:25:24;99238.22;;;22.55;73.45
61296;BME280;47168;48.104;20.730;2022-08-21T07:27:50;99236.16;;;22.57;73.26
61296;BME280;47168;48.104;20.730;2022-08-21T07:30:15;99233.06;;;22.67;74.46
61296;BME280;47168;48.104;20.730;2022-08-21T07:32:40;99238.94;;;22.84;72.31
61296;BME280;47168;48.104;20.730;2022-08-21T07:35:06;99238.09;;;22.90;74.97
61296;BME280;47168;48.104;20.730;2022-08-21T07:37:32;99240.84;;;23.10;71.60
61296;BME280;47168;48.104;20.730;2022-08-21T07:39:57;99238.34;;;23.08;69.78
61296;BME280;47168;48.104;20.730;2022-08-21T07:42:23;99237.28;;;23.03;70.91
61296;BME280;47168;48.104;20.730;2022-08-21T07:44:48;99231.91;;;23.03;69.42
61296;BME280;47168;48.104;20.730;2022-08-21T07:47:14;99235.19;;;22.91;69.46
61296;BME280;47168;48.104;20.730;2022-08-21T07:49:39;99236.25;;;23.04;71.17
61296;BME280;47168;48.104;20.730;2022-08-21T07:52:05;99233.81;;;23.09;70.55
61296;BME280;47168;48.104;20.730;2022-08-21T07:54:31;99230.06;;;23.17;69.65
61296;BME280;47168;48.104;20.730;2022-08-21T07:56:56;99232.78;;;23.30;69.63
61296;BME280;47168;48.104;20.730;2022-08-21T07:59:21;99241.25;;;23.40;71.10
61296;BME280;47168;48.104;20.730;2022-08-21T08:01:47;99230.06;;;23.43;70.29
61296;BME280;47168;48.104;20.730;2022-08-21T08:04:12;99239.81;;;23.51;69.24
61296;BME280;47168;48.104;20.730;2022-08-21T08:06:40;99238.34;;;23.48;69.25
61296;BME280;47168;48.104;20.730;2022-08-21T08:09:05;99237.13;;;23.51;68.01
61296;BME280;47168;48.104;20.730;2022-08-21T08:11:30;99228.63;;;23.61;70.46
61296;BME280;47168;48.104;20.730;2022-08-21T08:13:56;99236.91;;;23.66;69.34
61296;BME280;47168;48.104;20.730;2022-08-21T08:16:25;99228.63;;;23.61;69.87
61296;BME280;47168;48.104;20.730;2022-08-21T08:18:51;99224.88;;;23.62;69.61
61296;BME280;47168;48.104;20.730;2022-08-21T08:21:17;99231.31;;;23.67;69.16
61296;BME280;47168;48.104;20.730;2022-08-21T08:23:45;99223.84;;;23.70;67.04
61296;BME280;47168;48.104;20.730;2022-08-21T08:26:10;99229.44;;;23.61;66.51
61296;BME280;47168;48.104;20.730;2022-08-21T08:28:36;99229.84;;;23.58;68.11
61296;BME280;47168;48.104;20.730;2022-08-21T08:31:02;99227.78;;;23.60;66.64
61296;BME280;47168;48.104;20.730;2022-08-21T08:33:27;99229.63;;;23.66;67.07
61296;BME280;47168;48.104;20.730;2022-08-21T08:35:53;99230.03;;;23.70;68.64
61296;BME280;47168;48.104;20.730;2022-08-21T08:38:20;99226.31;;;23.71;69.06
61296;BME280;47168;48.104;20.730;2022-08-21T08:43:32;99234.19;;;23.79;66.95
61296;BME280;47168;48.104;20.730;2022-08-21T08:46:03;99237.09;;;23.84;69.13
61296;BME280;47168;48.104;20.730;2022-08-21T08:48:59;99233.97;;;23.88;71.05
61296;BME280;47168;48.104;20.730;2022-08-21T08:54:28;99229.00;;;23.78;67.22
61296;BME280;47168;48.104;20.730;2022-08-21T08:56:58;99226.72;;;23.81;67.45
61296;BME280;47168;48.104;20.730;2022-08-21T08:59:40;99231.47;;;23.93;68.89
61296;BME280;47168;48.104;20.730;2022-08-21T09:02:09;99224.81;;;24.02;67.93
61296;BME280;47168;48.104;20.730;2022-08-21T09:04:36;99225.84;;;24.08;68.13
61296;BME280;47168;48.104;20.730;2022-08-21T09:07:39;99218.47;;;24.35;67.95
61296;BME280;47168;48.104;20.730;2022-08-21T09:11:01;99220.66;;;24.51;66.48
61296;BME280;47168;48.104;20.730;2022-08-21T09:24:59;99212.53;;;24.65;64.38
61296;BME280;47168;48.104;20.730;2022-08-21T09:27:28;99221.41;;;24.72;65.03
61296;BME280;47168;48.104;20.730;2022-08-21T09:29:55;99223.69;;;24.75;61.89
61296;BME280;47168;48.104;20.730;2022-08-21T09:32:28;99233.66;;;24.74;59.24
61296;BME280;47168;48.104;20.730;2022-08-21T09:35:11;99231.03;;;24.61;59.44
61296;BME280;47168;48.104;20.730;2022-08-21T09:38:05;99235.75;;;24.66;60.28
61296;BME280;47168;48.104;20.730;2022-08-21T09:40:42;99236.13;;;24.76;61.11
61296;BME280;47168;48.104;20.730;2022-08-21T09:45:36;99237.97;;;24.75;61.22
61296;BME280;47168;48.104;20.730;2022-08-21T09:48:20;99241.16;;;24.66;61.70
61296;BME280;47168;48.104;20.730;2022-08-21T09:50:47;99241.56;;;24.69;65.73
61296;BME280;47168;48.104;20.730;2022-08-21T09:53:28;99253.28;;;24.88;69.04
61296;BME280;47168;48.104;20.730;2022-08-21T09:56:04;99253.22;;;24.63;71.64
61296;BME280;47168;48.104;20.730;2022-08-21T09:58:51;99248.09;;;24.41;74.24
61296;BME280;47168;48.104;20.730;2022-08-21T10:01:20;99261.44;;;24.23;76.10
61296;BME280;47168;48.104;20.730;2022-08-21T10:03:47;99257.81;;;23.97;79.56
61296;BME280;47168;48.104;20.730;2022-08-21T10:06:24;99263.63;;;23.74;82.77
61296;BME280;47168;48.104;20.730;2022-08-21T10:08:51;99278.72;;;23.75;83.42
61296;BME280;47168;48.104;20.730;2022-08-21T10:11:17;99265.06;;;23.83;83.95
61296;BME280;47168;48.104;20.730;2022-08-21T10:19:01;99269.22;;;23.59;81.78
61296;BME280;47168;48.104;20.730;2022-08-21T10:24:33;99279.59;;;23.56;80.88
61296;BME280;47168;48.104;20.730;2022-08-21T10:27:14;99289.28;;;23.17;86.24
61296;BME280;47168;48.104;20.730;2022-08-21T10:30:03;99288.66;;;23.08;84.30
61296;BME280;47168;48.104;20.730;2022-08-21T10:40:54;99296.53;;;23.16;83.23
61296;BME280;47168;48.104;20.730;2022-08-21T10:48:39;99296.66;;;22.94;89.54
61296;BME280;47168;48.104;20.730;2022-08-21T10:56:33;99298.53;;;22.87;87.09
61296;BME280;47168;48.104;20.730;2022-08-21T11:01:59;99302.56;;;22.63;86.47
61296;BME280;47168;48.104;20.730;2022-08-21T11:04:38;99301.34;;;22.66;90.38
61296;BME280;47168;48.104;20.730;2022-08-21T11:07:16;99296.63;;;22.81;91.85
61296;BME280;47168;48.104;20.730;2022-08-21T11:09:47;99294.38;;;22.91;87.96
61296;BME280;47168;48.104;20.730;2022-08-21T11:12:27;99289.41;;;22.95;88.10
61296;BME280;47168;48.104;20.730;2022-08-21T11:17:42;99287.56;;;22.96;85.54
61296;BME280;47168;48.104;20.730;2022-08-21T11:20:28;99272.09;;;23.11;92.79
61296;BME280;47168;48.104;20.730;2022-08-21T11:22:58;99272.53;;;23.21;87.00
61296;BME280;47168;48.104;20.730;2022-08-21T11:28:00;99269.03;;;23.34;84.88
61296;BME280;47168;48.104;20.730;2022-08-21T11:30:45;99268.81;;;23.29;83.22
61296;BME280;47168;48.104;20.730;2022-08-21T11:36:05;99264.88;;;23.25;84.36
61296;BME280;47168;48.104;20.730;2022-08-21T11:38:40;99252.66;;;23.29;89.98
61296;BME280;47168;48.104;20.730;2022-08-21T11:47:05;99251.19;;;23.20;81.77
61296;BME280;47168;48.104;20.730;2022-08-21T11:49:57;99242.72;;;23.16;80.19
61296;BME280;47168;48.104;20.730;2022-08-21T11:52:34;99242.91;;;23.15;80.74
61296;BME280;47168;48.104;20.730;2022-08-21T11:57:39;99241.84;;;22.96;80.38
61296;BME280;47168;48.104;20.730;2022-08-21T12:00:17;99242.47;;;22.98;80.96
61296;BME280;47168;48.104;20.730;2022-08-21T12:02:52;99234.59;;;23.03;82.44
61296;BME280;47168;48.104;20.730;2022-08-21T12:05:32;99231.53;;;23.12;81.62
61296;BME280;47168;48.104;20.730;2022-08-21T12:10:37;99230.94;;;23.24;78.34
61296;BME280;47168;48.104;20.730;2022-08-21T12:13:30;99233.63;;;23.24;77.43
61296;BME280;47168;48.104;20.730;2022-08-21T12:16:11;99231.13;;;23.22;77.50
61296;BME280;47168;48.104;20.730;2022-08-21T12:18:36;99217.66;;;23.16;77.62
61296;BME280;47168;48.104;20.730;2022-08-21T12:24:18;99204.41;;;23.27;74.73
61296;BME280;47168;48.104;20.730;2022-08-21T12:26:59;99192.78;;;23.34;74.03
61296;BME280;47168;48.104;20.730;2022-08-21T12:29:32;99183.66;;;23.55;76.13
61296;BME280;47168;48.104;20.730;2022-08-21T12:32:18;99184.81;;;23.92;75.90
61296;BME280;47168;48.104;20.730;2022-08-21T12:37:47;99173.94;;;24.19;70.03
61296;BME280;47168;48.104;20.730;2022-08-21T12:40:39;99161.91;;;24.21;70.95
61296;BME280;47168;48.104;20.730;2022-08-21T12:43:13;99148.38;;;24.35;71.25
61296;BME280;47168;48.104;20.730;2022-08-21T12:45:44;99158.03;;;24.49;70.18
61296;BME280;47168;48.104;20.730;2022-08-21T12:48:12;99149.56;;;24.39;68.09
61296;BME280;47168;48.104;20.730;2022-08-21T12:50:57;99140.22;;;24.80;64.78
61296;BME280;47168;48.104;20.730;2022-08-21T12:53:30;99133.50;;;24.64;62.91
61296;BME280;47168;48.104;20.730;2022-08-21T12:56:01;99134.50;;;24.31;63.71
61296;BME280;47168;48.104;20.730;2022-08-21T12:58:29;99126.63;;;24.30;65.81
61296;BME280;47168;48.104;20.730;2022-08-21T13:01:05;99124.41;;;24.52;66.24
61296;BME280;47168;48.104;20.730;2022-08-21T13:03:35;99127.41;;;24.69;68.03
61296;BME280;47168;48.104;20.730;2022-08-21T13:06:05;99127.22;;;24.70;64.44
61296;BME280;47168;48.104;20.730;2022-08-21T13:08:33;99129.03;;;24.76;63.82
61296;BME280;47168;48.104;20.730;2022-08-21T13:11:03;99123.31;;;24.91;63.25
61296;BME280;47168;48.104;20.730;2022-08-21T13:13:30;99128.38;;;25.06;64.15
61296;BME280;47168;48.104;20.730;2022-08-21T13:16:04;99120.22;;;25.13;63.19
61296;BME280;47168;48.104;20.730;2022-08-21T13:18:39;99121.25;;;25.12;62.14
61296;BME280;47168;48.104;20.730;2022-08-21T13:21:16;99125.47;;;25.51;64.01
61296;BME280;47168;48.104;20.730;2022-08-21T13:23:41;99119.00;;;25.89;59.71
61296;BME280;47168;48.104;20.730;2022-08-21T13:26:19;99118.59;;;25.86;56.99
61296;BME280;47168;48.104;20.730;2022-08-21T13:28:45;99121.19;;;25.44;58.60
61296;BME280;47168;48.104;20.730;2022-08-21T13:31:18;99124.09;;;25.17;58.73
61296;BME280;47168;48.104;20.730;2022-08-21T13:33:44;99126.81;;;25.17;56.79
61296;BME280;47168;48.104;20.730;2022-08-21T13:36:29;99134.22;;;25.28;59.13
61296;BME280;47168;48.104;20.730;2022-08-21T13:38:57;99135.06;;;25.22;59.67
61296;BME280;47168;48.104;20.730;2022-08-21T13:41:26;99137.94;;;25.27;59.27
61296;BME280;47168;48.104;20.730;2022-08-21T13:44:03;99134.91;;;25.61;59.56
61296;BME280;47168;48.104;20.730;2022-08-21T13:46:34;99142.84;;;25.74;60.26
61296;BME280;47168;48.104;20.730;2022-08-21T13:49:02;99141.59;;;25.58;57.62
61296;BME280;47168;48.104;20.730;2022-08-21T13:51:29;99152.69;;;25.50;61.65
61296;BME280;47168;48.104;20.730;2022-08-21T13:53:56;99152.72;;;25.68;61.06
61296;BME280;47168;48.104;20.730;2022-08-21T13:58:48;99142.09;;;25.85;59.90
61296;BME280;47168;48.104;20.730;2022-08-21T14:01:49;99144.69;;;25.99;60.68
61296;BME280;47168;48.104;20.730;2022-08-21T14:04:22;99146.16;;;25.95;59.42
61296;BME280;47168;48.104;20.730;2022-08-21T14:06:49;99141.44;;;25.72;60.47
61296;BME280;47168;48.104;20.730;2022-08-21T14:09:26;99149.13;;;25.75;59.00
61296;BME280;47168;48.104;20.730;2022-08-21T14:11:54;99145.78;;;25.73;58.59
61296;BME280;47168;48.104;20.730;2022-08-21T14:14:26;99147.06;;;26.07;60.93
61296;BME280;47168;48.104;20.730;2022-08-21T14:19:26;99144.88;;;26.16;58.08
61296;BME280;47168;48.104;20.730;2022-08-21T14:21:52;99145.09;;;26.14;56.54